Cut Knife, Canada
Current Conditions -  °F | °C
As of 12:00 PM on Tuesday 21 Oct 2014 (Local Time) from CYQW Reporting Station
Clear Clear  
Wind Chill: 61°   Ceiling: Unl
Heat Index: 61°   Visibility: 9mi
Dew Point: 37°   Wind: 8mph
Humidity: 42%   Direction: 290°WNW
Pressure: 29.58"   Gusts: NA
Location:  52.74°N, 109.02°W
Report Text: CYQW 211800Z AUTO 29007KT 250V310 9SM CLR 16/03 A2958 RMK SLP023 DENSITY ALT 2700FT
Loading
Personal Weather Stations






























Interactive Weather Map
Tropical Storm Tracking
New forecast layout! Learn more

10-Day Weather Forecast

Advertisements
Track Severe Weather on mobile